Time;durP1;ratioP1;P1;durP2;ratioP2;P2;SDS_P1;SDS_P2;PMS_P1;PMS_P2;Temp;Humidity;BMP_temperature;BMP_pressure;BME280_temperature;BME280_humidity;BME280_pressure;Samples;Min_cycle;Max_cycle;Signal;HPM_P1;HPM_P2
2022/08/21 00:01:09;;;;;;;9.38;3.50;;;14.10;99.90;;;;;;6218958;23;20024;-80
2022/08/21 00:03:35;;;;;;;8.48;3.55;;;14.00;99.90;;;;;;6247194;23;20023;-80
2022/08/21 00:06:01;;;;;;;12.05;3.28;;;14.00;99.90;;;;;;6220383;23;20024;-80
2022/08/21 00:08:27;;;;;;;9.25;3.60;;;14.00;99.90;;;;;;6194256;23;20020;-80
2022/08/21 00:10:52;;;;;;;12.38;3.42;;;13.90;99.90;;;;;;6247460;23;20023;-80
2022/08/21 00:13:19;;;;;;;12.35;3.80;;;13.90;99.90;;;;;;6195201;23;20510;-80
2022/08/21 00:15:46;;;;;;;9.98;3.63;;;13.90;99.90;;;;;;6219336;23;20351;-80
2022/08/21 00:18:12;;;;;;;8.27;3.60;;;13.90;99.90;;;;;;6220010;23;20016;-80
2022/08/21 00:20:39;;;;;;;8.07;3.83;;;13.90;99.90;;;;;;6195171;23;20070;-80
2022/08/21 00:23:06;;;;;;;8.50;3.65;;;13.90;99.90;;;;;;6245754;22;20012;-80
2022/08/21 00:25:32;;;;;;;9.88;3.10;;;13.80;99.90;;;;;;6220090;23;20020;-80
2022/08/21 00:27:58;;;;;;;15.88;5.18;;;13.80;99.90;;;;;;6220169;23;20333;-80
2022/08/21 00:30:26;;;;;;;6.45;3.08;;;13.80;99.90;;;;;;6245748;23;20016;-80
2022/08/21 00:32:53;;;;;;;6.03;3.45;;;13.80;99.90;;;;;;6220100;23;20470;-80
2022/08/21 00:35:23;;;;;;;8.63;4.00;;;13.80;99.90;;;;;;6220102;23;20039;-80
2022/08/21 00:37:49;;;;;;;11.68;3.58;;;13.80;99.90;;;;;;6245703;23;20371;-80
2022/08/21 00:40:18;;;;;;;6.90;3.15;;;13.70;99.90;;;;;;6219873;23;20069;-80
2022/08/21 00:42:45;;;;;;;4.55;3.47;;;13.70;99.90;;;;;;6246412;23;20016;-80
2022/08/21 00:45:12;;;;;;;11.10;3.50;;;13.70;99.90;;;;;;6220006;23;20093;-80
2022/08/21 00:47:37;;;;;;;8.82;3.75;;;13.70;99.90;;;;;;6194941;23;20008;-80
2022/08/21 00:50:07;;;;;;;7.55;3.03;;;13.70;99.90;;;;;;6218904;23;20024;-80
2022/08/21 00:52:36;;;;;;;8.55;3.28;;;13.70;99.90;;;;;;6246720;23;20039;-80
2022/08/21 00:55:03;;;;;;;4.88;3.25;;;13.60;99.90;;;;;;6247036;23;20079;-80
2022/08/21 00:57:47;;;;;;;8.77;3.72;;;13.60;99.90;;;;;;6245731;23;20057;-80
2022/08/21 01:00:18;;;;;;;8.95;4.47;;;13.60;99.90;;;;;;6194795;23;20314;-80
2022/08/21 01:02:44;;;;;;;7.05;3.63;;;13.60;99.90;;;;;;6246818;23;20012;-80
2022/08/21 01:05:11;;;;;;;14.38;4.22;;;13.60;99.90;;;;;;6218912;23;20053;-80
2022/08/21 01:07:37;;;;;;;7.78;3.60;;;13.60;99.90;;;;;;6246588;23;20020;-80
2022/08/21 01:10:05;;;;;;;7.45;3.50;;;13.60;99.90;;;;;;6219789;23;20031;-80
2022/08/21 01:12:32;;;;;;;7.32;3.95;;;13.60;99.90;;;;;;6218595;23;20020;-80
2022/08/21 01:14:58;;;;;;;6.10;3.05;;;13.60;99.90;;;;;;6246938;23;20062;-80
2022/08/21 01:17:25;;;;;;;8.23;3.72;;;13.60;99.90;;;;;;6219675;23;20095;-80
2022/08/21 01:19:50;;;;;;;7.53;3.25;;;13.60;99.90;;;;;;6245903;23;20023;-80
2022/08/21 01:22:16;;;;;;;7.15;3.65;;;13.60;99.90;;;;;;6219382;23;20341;-80
2022/08/21 01:24:42;;;;;;;8.25;3.67;;;13.60;99.90;;;;;;6246320;23;20433;-80
2022/08/21 01:27:08;;;;;;;6.45;3.97;;;13.60;99.90;;;;;;6218681;23;20012;-80
2022/08/21 01:29:55;;;;;;;7.13;3.92;;;13.60;99.90;;;;;;6219626;23;20058;-80
2022/08/21 01:32:21;;;;;;;8.25;4.03;;;13.70;99.90;;;;;;6193704;23;20027;-80
2022/08/21 01:34:49;;;;;;;5.47;3.65;;;13.60;99.90;;;;;;6246575;23;20455;-80
2022/08/21 01:37:15;;;;;;;8.57;3.75;;;13.60;99.90;;;;;;6219509;23;20017;-80
2022/08/21 01:39:42;;;;;;;9.23;4.05;;;13.60;99.90;;;;;;6245694;23;20020;-80
2022/08/21 01:42:08;;;;;;;11.18;3.90;;;13.60;99.90;;;;;;6219437;23;20019;-80
2022/08/21 01:44:35;;;;;;;8.80;4.07;;;13.60;99.90;;;;;;6219341;23;20020;-80
2022/08/21 01:47:03;;;;;;;6.80;3.70;;;13.60;99.90;;;;;;6193414;23;20520;-80
2022/08/21 01:49:29;;;;;;;8.40;3.72;;;13.60;99.90;;;;;;6219532;23;20016;-80
2022/08/21 01:51:55;;;;;;;8.93;3.50;;;13.60;99.90;;;;;;6219106;23;20463;-80
2022/08/21 01:54:21;;;;;;;6.07;3.90;;;13.60;99.90;;;;;;6218376;23;20027;-80
2022/08/21 01:56:50;;;;;;;7.60;3.60;;;13.60;99.90;;;;;;6194250;23;20024;-80
2022/08/21 01:59:16;;;;;;;5.93;4.18;;;13.60;99.90;;;;;;6219441;23;20463;-80
2022/08/21 02:01:42;;;;;;;7.40;4.90;;;13.60;99.90;;;;;;6218447;23;20102;-80
2022/08/21 02:04:09;;;;;;;15.20;5.18;;;13.60;99.90;;;;;;6246063;23;20016;-80
2022/08/21 02:06:35;;;;;;;14.00;5.28;;;13.70;99.90;;;;;;6246537;23;20020;-80
2022/08/21 02:09:06;;;;;;;14.13;6.97;;;13.60;99.90;;;;;;6245528;23;20020;-80
2022/08/21 02:11:32;;;;;;;13.45;6.00;;;13.70;99.90;;;;;;6246467;23;20004;-80
2022/08/21 02:13:58;;;;;;;10.40;5.63;;;13.60;99.90;;;;;;6219780;23;20320;-80
2022/08/21 02:16:24;;;;;;;12.98;5.38;;;13.60;99.90;;;;;;6245563;23;20020;-80
2022/08/21 02:18:50;;;;;;;10.95;5.97;;;13.70;99.90;;;;;;6219292;23;20078;-80
2022/08/21 02:21:16;;;;;;;12.23;7.28;;;13.70;99.90;;;;;;6218157;23;20012;-79
2022/08/21 02:23:42;;;;;;;11.80;6.45;;;13.70;99.90;;;;;;6219404;23;20059;-80
2022/08/21 02:26:08;;;;;;;15.70;7.40;;;13.80;99.90;;;;;;6248462;23;20404;-80
2022/08/21 02:28:35;;;;;;;13.93;7.10;;;13.80;99.90;;;;;;6247568;23;20019;-80
2022/08/21 02:31:02;;;;;;;10.00;6.55;;;13.80;99.90;;;;;;6221200;23;20020;-80
2022/08/21 02:33:30;;;;;;;11.00;6.43;;;13.80;99.90;;;;;;6247992;23;20046;-80
2022/08/21 02:35:56;;;;;;;11.75;7.10;;;13.80;99.90;;;;;;6195306;23;20368;-80
2022/08/21 02:38:26;;;;;;;13.80;7.22;;;13.90;99.90;;;;;;6248383;23;20024;-80
2022/08/21 02:40:56;;;;;;;10.70;5.25;;;13.90;99.90;;;;;;6248438;23;20016;-80
2022/08/21 02:43:24;;;;;;;10.75;6.15;;;13.90;99.90;;;;;;6247277;23;20074;-80
2022/08/21 02:45:50;;;;;;;11.43;5.95;;;13.90;99.90;;;;;;6247977;23;20012;-80
2022/08/21 02:48:19;;;;;;;13.32;6.60;;;13.90;99.90;;;;;;6221112;23;20129;-80
2022/08/21 02:50:52;;;;;;;7.28;5.38;;;13.90;99.90;;;;;;6247324;23;20016;-80
2022/08/21 02:53:18;;;;;;;13.75;6.78;;;13.90;99.90;;;;;;6248294;23;20035;-80
2022/08/21 02:55:46;;;;;;;10.45;6.07;;;13.90;99.90;;;;;;6248202;23;20027;-80
2022/08/21 02:58:13;;;;;;;12.18;7.35;;;13.90;99.90;;;;;;6247296;23;20070;-80
2022/08/21 03:00:40;;;;;;;13.93;6.55;;;13.90;99.90;;;;;;6248115;23;20035;-80
2022/08/21 03:03:06;;;;;;;11.95;6.40;;;13.90;99.90;;;;;;6247727;23;20019;-80
2022/08/21 03:05:34;;;;;;;12.90;6.25;;;13.90;99.90;;;;;;6247002;23;20018;-80
2022/08/21 03:08:03;;;;;;;10.80;6.88;;;13.90;99.90;;;;;;6247667;23;20051;-80
2022/08/21 03:10:30;;;;;;;12.68;6.35;;;14.00;99.90;;;;;;6246509;23;20096;-80
2022/08/21 03:12:56;;;;;;;11.25;6.40;;;13.90;99.90;;;;;;6248055;23;20099;-80
2022/08/21 03:15:23;;;;;;;22.30;6.97;;;14.00;99.90;;;;;;6247648;23;20051;-80
2022/08/21 03:17:50;;;;;;;15.93;7.20;;;14.00;99.90;;;;;;6246630;23;20063;-80
2022/08/21 03:20:21;;;;;;;11.48;6.38;;;14.00;99.90;;;;;;6247576;23;20344;-80
2022/08/21 03:22:47;;;;;;;10.98;6.78;;;14.00;99.90;;;;;;6247278;23;20022;-80
2022/08/21 03:25:13;;;;;;;13.13;6.82;;;14.00;99.90;;;;;;6246551;23;20020;-80
2022/08/21 03:27:39;;;;;;;8.00;6.20;;;14.00;99.90;;;;;;6247553;23;20016;-80
2022/08/21 03:30:06;;;;;;;11.48;6.10;;;14.00;99.90;;;;;;6247936;23;20016;-80
2022/08/21 03:32:33;;;;;;;9.57;5.82;;;14.00;99.90;;;;;;6246355;23;20514;-80
2022/08/21 03:35:00;;;;;;;13.25;6.70;;;14.00;99.90;;;;;;6220238;23;20138;-80
2022/08/21 03:37:26;;;;;;;12.35;6.40;;;14.00;99.90;;;;;;6247373;23;20016;-80
2022/08/21 03:39:52;;;;;;;11.95;6.63;;;14.00;99.90;;;;;;6246511;23;20147;-80
2022/08/21 03:42:18;;;;;;;13.52;6.93;;;14.00;99.90;;;;;;6247758;23;20051;-80
2022/08/21 03:44:44;;;;;;;13.35;6.50;;;14.10;99.90;;;;;;6195470;23;20351;-80
2022/08/21 03:47:09;;;;;;;10.80;6.22;;;14.10;99.90;;;;;;6219630;23;20487;-80
2022/08/21 03:49:37;;;;;;;10.60;6.70;;;14.10;99.90;;;;;;6195119;23;20019;-80
2022/08/21 03:52:03;;;;;;;13.95;6.18;;;14.10;99.90;;;;;;6220431;23;20075;-80
2022/08/21 03:54:30;;;;;;;8.65;6.43;;;14.20;99.90;;;;;;6219595;23;20340;-80
2022/08/21 03:56:56;;;;;;;16.45;7.07;;;14.10;99.90;;;;;;6195423;23;20016;-80
2022/08/21 03:59:22;;;;;;;13.25;7.15;;;14.20;99.90;;;;;;6220534;23;20020;-80
2022/08/21 04:01:56;;;;;;;11.60;6.85;;;14.20;99.90;;;;;;6246545;23;20009;-80
2022/08/21 04:04:23;;;;;;;14.63;6.30;;;14.20;99.90;;;;;;6245617;23;20095;-80
2022/08/21 04:06:49;;;;;;;13.00;6.75;;;14.20;99.90;;;;;;6219656;23;20021;-79
2022/08/21 04:09:17;;;;;;;14.20;7.20;;;14.20;99.90;;;;;;6220253;23;20016;-80
2022/08/21 04:11:42;;;;;;;17.55;6.88;;;14.20;99.90;;;;;;6220292;23;20046;-80
2022/08/21 04:14:09;;;;;;;18.75;7.22;;;14.20;99.90;;;;;;6219420;23;20099;-80
2022/08/21 04:16:35;;;;;;;11.45;6.05;;;14.30;99.90;;;;;;6195354;23;20094;-80
2022/08/21 04:19:01;;;;;;;12.38;7.38;;;14.20;99.90;;;;;;6220189;23;20020;-80
2022/08/21 04:21:27;;;;;;;16.02;7.05;;;14.20;99.90;;;;;;6219284;23;20034;-80
2022/08/21 04:23:56;;;;;;;12.10;6.38;;;14.20;99.90;;;;;;6246763;22;20091;-80
2022/08/21 04:26:22;;;;;;;14.55;6.75;;;14.20;99.90;;;;;;6246970;23;20087;-80
2022/08/21 04:28:48;;;;;;;13.13;5.78;;;14.20;99.90;;;;;;6246025;23;20466;-80
2022/08/21 04:31:14;;;;;;;9.32;5.88;;;14.20;99.90;;;;;;6246846;23;20012;-80
2022/08/21 04:33:40;;;;;;;13.73;5.90;;;14.20;99.90;;;;;;6220053;23;20094;-80
2022/08/21 04:36:06;;;;;;;14.88;7.45;;;14.20;99.90;;;;;;6218739;23;20012;-80
2022/08/21 04:38:32;;;;;;;15.73;6.70;;;14.20;99.90;;;;;;6219972;23;20099;-80
2022/08/21 04:40:58;;;;;;;11.40;6.75;;;14.20;99.90;;;;;;6220203;23;20016;-80
2022/08/21 04:43:24;;;;;;;13.27;6.50;;;14.20;99.90;;;;;;6218980;23;20466;-80
2022/08/21 04:45:51;;;;;;;14.73;7.05;;;14.20;99.90;;;;;;6219920;23;20020;-80
2022/08/21 04:48:21;;;;;;;17.73;6.18;;;14.20;99.90;;;;;;6219747;23;20035;-80
2022/08/21 04:51:02;;;;;;;13.25;6.55;;;14.20;99.90;;;;;;6194018;23;20043;-80
2022/08/21 04:53:36;;;;;;;13.00;6.03;;;14.10;99.90;;;;;;6246828;23;20016;-80
2022/08/21 04:56:08;;;;;;;13.93;6.15;;;14.10;99.90;;;;;;6218926;23;20103;-80
2022/08/21 04:58:37;;;;;;;14.25;6.35;;;14.10;99.90;;;;;;6247073;23;20083;-80
2022/08/21 05:01:06;;;;;;;14.23;6.35;;;14.20;99.90;;;;;;6246796;23;20016;-80
2022/08/21 05:03:36;;;;;;;13.25;5.93;;;14.20;99.90;;;;;;6218701;23;20020;-80
2022/08/21 05:06:05;;;;;;;15.52;6.53;;;14.20;99.90;;;;;;6246655;23;20074;-80
2022/08/21 05:08:31;;;;;;;12.30;6.07;;;14.20;99.90;;;;;;6246750;23;20098;-80
2022/08/21 05:10:58;;;;;;;9.15;5.07;;;14.30;99.90;;;;;;6245914;23;20031;-80
2022/08/21 05:13:23;;;;;;;12.02;6.13;;;14.30;99.90;;;;;;6246670;23;20017;-80
2022/08/21 05:15:49;;;;;;;16.58;6.03;;;14.30;99.90;;;;;;6246917;23;20111;-80
2022/08/21 05:18:15;;;;;;;17.40;5.82;;;14.40;99.90;;;;;;6245854;23;20016;-80
2022/08/21 05:20:41;;;;;;;10.85;6.22;;;14.40;99.90;;;;;;6219638;23;20097;-80
2022/08/21 05:23:09;;;;;;;10.57;5.47;;;14.40;99.90;;;;;;6219402;23;20412;-80
2022/08/21 05:25:35;;;;;;;13.70;5.63;;;14.50;99.90;;;;;;6218659;23;20103;-80
2022/08/21 05:28:01;;;;;;;11.00;6.22;;;14.50;99.90;;;;;;6219645;23;20074;-80
2022/08/21 05:30:27;;;;;;;13.57;5.68;;;14.50;99.90;;;;;;6219632;23;20023;-80
2022/08/21 05:33:02;;;;;;;16.67;6.93;;;14.60;99.90;;;;;;6218620;23;20019;-80
2022/08/21 05:35:28;;;;;;;;;;;14.60;99.90;;;;;;6170463;23;20016;-80
2022/08/21 05:37:54;;;;;;;11.68;5.95;;;14.70;99.90;;;;;;6246293;23;19962;-80
2022/08/21 05:40:20;;;;;;;14.70;5.97;;;14.70;99.90;;;;;;6218518;23;20024;-79
2022/08/21 05:42:46;;;;;;;13.18;5.32;;;14.80;99.90;;;;;;6219508;23;20028;-80
2022/08/21 05:45:12;;;;;;;17.38;5.68;;;14.80;99.90;;;;;;6218550;23;20444;-80
2022/08/21 05:47:39;;;;;;;8.10;4.97;;;14.90;99.90;;;;;;6219409;23;20466;-80
2022/08/21 05:50:05;;;;;;;9.60;5.57;;;15.00;99.90;;;;;;6219456;23;20016;-80
2022/08/21 05:52:31;;;;;;;10.27;5.43;;;15.10;99.90;;;;;;6245650;23;20021;-80
2022/08/21 05:54:57;;;;;;;11.88;5.40;;;15.10;99.90;;;;;;6246588;23;20051;-80
2022/08/21 05:57:23;;;;;;;11.38;5.03;;;15.20;99.90;;;;;;6246572;23;20019;-80
2022/08/21 05:59:50;;;;;;;14.93;5.75;;;15.30;99.90;;;;;;6218100;23;20066;-80
2022/08/21 06:02:18;;;;;;;15.45;6.13;;;15.40;99.90;;;;;;6219333;23;20048;-80
2022/08/21 06:04:44;;;;;;;9.93;4.75;;;15.50;99.90;;;;;;6246498;23;20056;-80
2022/08/21 06:07:10;;;;;;;10.48;4.90;;;15.50;99.90;;;;;;6245648;23;20309;-80
2022/08/21 06:09:37;;;;;;;12.43;5.72;;;15.60;99.90;;;;;;6194246;23;20027;-80
2022/08/21 06:12:09;;;;;;;14.50;5.53;;;15.60;99.90;;;;;;6246674;23;20024;-80
2022/08/21 06:14:36;;;;;;;10.90;5.10;;;15.70;99.90;;;;;;6218395;23;20019;-80
2022/08/21 06:17:07;;;;;;;10.23;5.00;;;15.80;99.90;;;;;;6219393;23;20032;-80
2022/08/21 06:19:34;;;;;;;14.82;6.95;;;15.90;99.90;;;;;;6219419;23;20012;-80
2022/08/21 06:22:00;;;;;;;10.23;5.28;;;15.90;99.90;;;;;;6218055;23;20016;-80
2022/08/21 06:24:26;;;;;;;15.18;5.03;;;16.00;99.90;;;;;;6219226;23;20499;-80
2022/08/21 06:26:53;;;;;;;15.10;5.28;;;16.10;99.90;;;;;;6219331;23;20317;-80
2022/08/21 06:29:19;;;;;;;11.32;4.75;;;16.20;99.90;;;;;;6218423;23;20024;-80
2022/08/21 06:31:47;;;;;;;13.57;4.88;;;16.20;99.90;;;;;;6219330;23;20502;-80
2022/08/21 06:34:13;;;;;;;13.18;4.75;;;16.30;99.90;;;;;;6246041;23;20095;-80
2022/08/21 06:36:39;;;;;;;13.35;4.50;;;16.40;99.90;;;;;;6218309;23;20013;-80
2022/08/21 06:39:05;;;;;;;11.68;4.22;;;16.50;99.90;;;;;;6194250;23;20021;-80
2022/08/21 06:41:31;;;;;;;10.57;5.05;;;16.60;99.90;;;;;;6193172;23;20020;-80
2022/08/21 06:43:57;;;;;;;15.00;4.63;;;16.60;99.90;;;;;;6218918;23;20459;-80
2022/08/21 06:46:25;;;;;;;11.50;5.15;;;16.70;99.90;;;;;;6219180;23;20020;-80
2022/08/21 06:48:51;;;;;;;8.40;4.35;;;16.80;99.90;;;;;;6243550;23;20024;-79
2022/08/21 06:51:16;;;;;;;9.60;5.15;;;16.90;99.90;;;;;;6219034;23;20091;-80
2022/08/21 06:53:44;;;;;;;13.10;5.30;;;16.90;99.90;;;;;;6219176;23;20020;-80
2022/08/21 06:56:10;;;;;;;7.85;4.50;;;17.00;99.90;;;;;;6193083;23;20057;-79
2022/08/21 06:58:35;;;;;;;16.63;4.88;;;17.10;99.90;;;;;;6246257;23;20099;-80
2022/08/21 07:01:01;;;;;;;11.65;4.05;;;17.20;99.90;;;;;;6246263;23;20361;-80
2022/08/21 07:03:37;;;;;;;14.02;4.00;;;17.30;99.90;;;;;;6217987;23;20441;-79
2022/08/21 07:06:04;;;;;;;11.18;3.80;;;17.40;99.90;;;;;;6219105;23;20105;-80
2022/08/21 07:08:30;;;;;;;13.10;4.03;;;17.50;99.90;;;;;;6219133;23;20012;-80
2022/08/21 07:10:58;;;;;;;14.40;3.85;;;17.60;99.90;;;;;;6219310;23;20020;-80
2022/08/21 07:13:24;;;;;;;10.40;3.35;;;17.70;99.90;;;;;;6220873;23;20051;-79
2022/08/21 07:15:50;;;;;;;13.70;3.60;;;17.70;99.90;;;;;;6220820;23;20012;-80
2022/08/21 07:18:16;;;;;;;11.00;3.17;;;17.80;99.90;;;;;;6219943;23;20020;-80
2022/08/21 07:20:42;;;;;;;10.40;3.55;;;17.90;99.90;;;;;;6246491;23;20363;-80
2022/08/21 07:23:23;;;;;;;10.02;3.30;;;18.00;99.90;;;;;;6247195;23;20436;-80
2022/08/21 07:25:48;;;;;;;9.68;2.80;;;18.10;99.90;;;;;;6219868;23;20017;-80
2022/08/21 07:28:14;;;;;;;9.55;2.75;;;18.10;99.90;;;;;;6220814;23;20340;-80
2022/08/21 07:30:40;;;;;;;10.98;2.92;;;18.10;99.90;;;;;;6219865;23;20451;-80
2022/08/21 07:33:05;;;;;;;14.32;3.33;;;18.20;99.90;;;;;;6247586;23;20008;-80
2022/08/21 07:35:33;;;;;;;15.07;2.90;;;18.20;99.90;;;;;;6247706;23;20012;-80
2022/08/21 07:37:58;;;;;;;14.65;2.75;;;18.30;99.90;;;;;;6246699;23;20012;-80
2022/08/21 07:40:24;;;;;;;14.48;2.53;;;18.40;99.90;;;;;;6247156;23;20031;-80
2022/08/21 07:42:51;;;;;;;10.73;2.25;;;18.50;99.90;;;;;;6220658;23;20024;-79
2022/08/21 07:45:20;;;;;;;13.70;3.28;;;18.60;99.90;;;;;;6219968;23;20016;-80
2022/08/21 07:47:45;;;;;;;12.23;3.25;;;18.70;99.90;;;;;;6220693;23;20097;-80
2022/08/21 07:50:13;;;;;;;11.63;2.95;;;18.70;99.90;;;;;;6220518;23;20436;-80
2022/08/21 07:52:40;;;;;;;12.93;2.92;;;18.80;99.90;;;;;;6219527;23;20448;-80
2022/08/21 07:55:07;;;;;;;12.18;2.92;;;18.90;99.90;;;;;;6195397;23;20117;-80
2022/08/21 07:57:33;;;;;;;14.48;3.03;;;19.00;99.90;;;;;;6247962;23;20109;-80
2022/08/21 07:59:59;;;;;;;10.27;2.67;;;19.00;99.90;;;;;;6219579;23;20016;-80
2022/08/21 08:02:27;;;;;;;14.13;3.10;;;19.00;99.90;;;;;;6247650;23;20023;-81
2022/08/21 08:04:53;;;;;;;13.45;3.08;;;19.10;99.90;;;;;;6220236;23;20038;-80
2022/08/21 08:07:19;;;;;;;14.70;3.67;;;19.10;99.90;;;;;;6219482;23;20448;-80
2022/08/21 08:09:45;;;;;;;15.63;2.92;;;19.10;99.90;;;;;;6220422;23;20023;-80
2022/08/21 08:12:11;;;;;;;9.85;2.92;;;19.10;99.90;;;;;;6220395;23;20091;-81
2022/08/21 08:14:37;;;;;;;10.85;3.90;;;19.20;99.90;;;;;;6219384;23;20048;-81
2022/08/21 08:17:03;;;;;;;11.60;3.30;;;19.20;99.90;;;;;;6220290;23;20024;-80
2022/08/21 08:19:30;;;;;;;10.38;2.63;;;19.30;99.90;;;;;;6195089;23;20016;-80
2022/08/21 08:21:56;;;;;;;13.90;2.72;;;19.30;99.90;;;;;;6218766;23;20016;-80
2022/08/21 08:24:21;;;;;;;13.45;3.20;;;19.40;99.90;;;;;;6220577;23;20020;-80
2022/08/21 08:26:47;;;;;;;10.27;2.58;;;19.40;99.90;;;;;;6220177;23;20020;-80
2022/08/21 08:29:13;;;;;;;17.48;4.20;;;19.40;99.90;;;;;;6246348;23;20066;-80
2022/08/21 08:31:39;;;;;;;17.05;3.13;;;19.40;99.90;;;;;;6220219;23;20048;-80
2022/08/21 08:34:05;;;;;;;14.85;4.35;;;19.50;99.90;;;;;;6245920;23;20085;-80
2022/08/21 08:36:33;;;;;;;14.80;4.22;;;19.50;99.90;;;;;;6220085;23;20020;-80
2022/08/21 08:39:00;;;;;;;13.93;3.58;;;19.60;99.90;;;;;;6247219;23;20391;-81
2022/08/21 08:41:26;;;;;;;11.93;2.35;;;19.60;99.90;;;;;;6219039;23;20018;-81
2022/08/21 08:43:55;;;;;;;16.95;3.72;;;19.70;99.90;;;;;;6194852;23;20051;-80
2022/08/21 08:46:40;;;;;;;16.65;2.75;;;19.80;99.90;;;;;;6246912;23;20074;-79
2022/08/21 08:49:31;;;;;;;11.73;3.08;;;19.90;99.90;;;;;;6246189;23;20371;-80
2022/08/21 08:52:02;;;;;;;12.30;2.97;;;19.90;99.90;;;;;;6220463;23;20083;-80
2022/08/21 08:54:33;;;;;;;15.30;3.42;;;19.90;99.90;;;;;;6247083;23;20023;-80
2022/08/21 08:57:05;;;;;;;16.55;3.45;;;19.90;99.90;;;;;;6193999;23;20016;-80
2022/08/21 08:59:42;;;;;;;16.38;3.75;;;19.90;99.90;;;;;;6247077;23;20042;-80
2022/08/21 09:02:14;;;;;;;15.40;3.88;;;19.90;99.90;;;;;;6246038;23;20015;-80
2022/08/21 09:04:40;;;;;;;13.75;3.72;;;20.00;99.90;;;;;;6219904;23;20016;-80
2022/08/21 09:07:09;;;;;;;15.95;2.95;;;20.10;99.90;;;;;;6219751;23;20016;-80
2022/08/21 09:09:52;;;;;;;13.98;3.45;;;20.20;99.90;;;;;;6246044;23;20095;-78
2022/08/21 09:12:55;;;;;;;10.93;2.58;;;20.40;99.90;;;;;;6219910;23;20012;-80
2022/08/21 09:15:23;;;;;;;10.68;2.95;;;20.60;99.90;;;;;;6245040;23;20460;-77
2022/08/21 09:18:02;;;;;;;11.68;3.15;;;20.60;99.90;;;;;;6245545;23;20066;-81
2022/08/21 09:20:35;;;;;;;14.63;2.88;;;20.60;99.90;;;;;;6194691;23;20020;-80
2022/08/21 09:23:52;;;;;;;12.18;3.28;;;20.70;99.90;;;;;;6194192;23;20024;-80
2022/08/21 09:26:22;;;;;;;11.30;3.13;;;20.80;99.90;;;;;;6153935;23;20028;-80
2022/08/21 09:28:57;;;;;;;12.60;3.50;;;20.90;99.90;;;;;;6194544;23;20074;-80
2022/08/21 09:31:29;;;;;;;14.05;3.47;;;21.00;99.90;;;;;;6193646;23;20043;-80
2022/08/21 09:34:08;;;;;;;10.80;2.28;;;21.00;99.90;;;;;;6219622;23;20369;-80
2022/08/21 09:36:42;;;;;;;13.05;3.08;;;21.00;99.90;;;;;;6219348;23;20012;-80
2022/08/21 09:39:10;;;;;;;13.00;3.10;;;21.00;99.90;;;;;;6193651;23;20091;-80
2022/08/21 09:41:38;;;;;;;11.43;2.67;;;21.00;99.90;;;;;;6219446;23;20018;-80
2022/08/21 09:44:06;;;;;;;12.88;2.97;;;21.10;99.90;;;;;;6219402;23;20016;-80
2022/08/21 09:46:32;;;;;;;8.50;2.65;;;21.20;99.90;;;;;;6218514;23;20054;-80
2022/08/21 09:49:03;;;;;;;10.57;2.65;;;21.30;99.90;;;;;;6194494;23;20039;-81
2022/08/21 09:51:30;;;;;;;13.75;3.25;;;21.40;99.90;;;;;;6218523;23;20051;-79
2022/08/21 09:53:56;;;;;;;11.55;3.00;;;21.50;99.90;;;;;;6193961;23;20470;-80
2022/08/21 09:59:26;;;;;;;13.65;2.40;;;21.70;99.90;;;;;;6218427;23;20099;-80
2022/08/21 10:01:53;;;;;;;10.77;2.50;;;21.80;99.90;;;;;;6219581;23;20016;-80
2022/08/21 10:04:22;;;;;;;13.80;2.65;;;22.00;99.90;;;;;;6219242;23;20026;-79
2022/08/21 10:06:48;;;;;;;11.75;2.50;;;22.20;99.90;;;;;;6218352;23;20034;-80
2022/08/21 10:09:17;;;;;;;8.65;2.35;;;22.20;99.90;;;;;;6219114;23;20472;-81
2022/08/21 10:12:09;;;;;;;14.13;2.40;;;22.20;99.90;;;;;;6219339;23;20456;-80
2022/08/21 10:14:44;;;;;;;10.32;2.55;;;22.10;99.90;;;;;;6218323;23;20100;-80
2022/08/21 10:17:30;;;;;;;11.23;2.20;;;22.10;99.90;;;;;;6219326;23;20053;-80
2022/08/21 10:20:25;;;;;;;6.60;2.40;;;22.10;99.90;;;;;;6217780;23;20020;-80
2022/08/21 10:23:18;;;;;;;12.13;2.97;;;22.00;99.90;;;;;;6242702;23;20403;-80
2022/08/21 10:25:57;;;;;;;10.65;2.83;;;22.00;99.90;;;;;;6219248;23;20099;-81
2022/08/21 10:28:30;;;;;;;8.85;2.80;;;22.00;99.90;;;;;;6218908;23;20020;-80
2022/08/21 10:31:04;;;;;;;13.48;2.20;;;21.90;99.90;;;;;;6219073;23;20095;-80
2022/08/21 10:33:53;;;;;;;8.32;2.22;;;22.00;99.90;;;;;;6194278;23;20027;-81
2022/08/21 10:36:41;;;;;;;8.93;2.08;;;22.10;99.90;;;;;;6246527;23;20310;-79
2022/08/21 10:39:16;;;;;;;9.43;2.30;;;22.10;99.90;;;;;;6246386;23;20012;-80
2022/08/21 10:42:01;;;;;;;11.98;2.15;;;22.20;99.90;;;;;;6245499;23;20039;-80
2022/08/21 10:44:47;;;;;;;14.45;2.15;;;22.30;99.90;;;;;;6219141;23;20534;-80
2022/08/21 10:47:25;;;;;;;13.07;2.50;;;22.30;99.90;;;;;;6247926;23;20448;-79
2022/08/21 10:50:19;;;;;;;13.73;2.35;;;22.30;99.90;;;;;;6220137;23;20020;-81
2022/08/21 10:52:51;;;;;;;7.90;2.15;;;22.20;99.90;;;;;;6248368;23;20382;-81
2022/08/21 10:55:17;;;;;;;11.23;2.53;;;22.00;99.90;;;;;;6246881;23;20020;-80
2022/08/21 10:58:05;;;;;;;11.38;2.30;;;21.90;99.90;;;;;;6248296;23;20023;-81
2022/08/21 11:00:39;;;;;;;18.25;3.17;;;21.80;99.90;;;;;;6195729;23;20023;-80
2022/08/21 11:03:20;;;;;;;23.77;2.77;;;21.70;99.90;;;;;;6247268;23;20091;-80
2022/08/21 11:05:54;;;;;;;16.90;3.78;;;21.50;99.90;;;;;;6195834;23;20510;-80
2022/08/21 11:08:52;;;;;;;12.20;3.00;;;21.30;99.90;;;;;;6221000;23;20013;-80
2022/08/21 11:11:33;;;;;;;12.10;2.72;;;21.30;99.90;;;;;;6248753;23;20089;-80
2022/08/21 11:14:11;;;;;;;15.55;2.63;;;21.30;99.90;;;;;;6221024;23;20016;-80
2022/08/21 11:16:58;;;;;;;11.15;2.83;;;21.30;99.90;;;;;;6219873;23;20012;-80
2022/08/21 11:19:48;;;;;;;11.95;2.58;;;21.40;99.90;;;;;;6220846;23;20020;-81
2022/08/21 11:22:33;;;;;;;12.93;2.75;;;21.50;99.90;;;;;;6220689;23;20099;-81
2022/08/21 11:25:09;;;;;;;13.57;3.28;;;21.60;99.90;;;;;;6194700;23;20375;-80
2022/08/21 11:27:44;;;;;;;11.00;2.90;;;21.60;99.90;;;;;;6221275;23;20022;-80
2022/08/21 11:30:11;;;;;;;9.32;2.63;;;21.60;99.90;;;;;;6246343;23;20024;-81
2022/08/21 11:33:01;;;;;;;12.52;2.83;;;21.60;99.90;;;;;;6247885;23;20014;-81
2022/08/21 11:35:43;;;;;;;14.02;2.75;;;21.80;99.90;;;;;;6247540;23;20103;-80
2022/08/21 11:38:38;;;;;;;9.48;2.38;;;21.90;99.90;;;;;;6219664;23;20044;-80
2022/08/21 11:41:19;;;;;;;6.90;1.88;;;22.10;99.90;;;;;;6220742;23;20016;-81
2022/08/21 11:44:07;;;;;;;8.48;2.35;;;22.20;99.90;;;;;;6220598;23;20030;-81
2022/08/21 11:46:46;;;;;;;7.05;2.20;;;22.30;99.90;;;;;;6247802;23;20087;-81
2022/08/21 11:49:25;;;;;;;9.48;2.75;;;22.30;99.90;;;;;;6220670;23;20051;-81
2022/08/21 11:52:11;;;;;;;9.85;2.22;;;22.30;99.90;;;;;;6219654;23;20066;-80
2022/08/21 11:54:54;;;;;;;8.68;2.00;;;22.20;99.90;;;;;;6220633;23;20016;-81
2022/08/21 11:57:32;;;;;;;9.00;2.47;;;22.10;99.90;;;;;;6247188;23;20332;-80
2022/08/21 12:00:16;;;;;;;4.85;1.70;;;22.00;99.90;;;;;;6220090;23;20079;-80
2022/08/21 12:02:47;;;;;;;10.98;1.85;;;21.80;99.90;;;;;;6220486;23;20020;-80
2022/08/21 12:05:30;;;;;;;11.10;1.83;;;21.80;99.90;;;;;;6219168;23;20095;-80
2022/08/21 12:08:33;;;;;;;11.55;2.55;;;21.70;99.90;;;;;;6195449;23;20016;-80
2022/08/21 12:11:06;;;;;;;8.00;1.90;;;21.60;99.90;;;;;;6220486;23;20463;-80
2022/08/21 12:13:38;;;;;;;8.02;2.10;;;21.60;99.90;;;;;;6246231;23;20020;-80
2022/08/21 12:16:27;;;;;;;10.15;2.28;;;21.60;99.90;;;;;;6195487;23;20142;-80
2022/08/21 12:19:07;;;;;;;8.02;2.15;;;21.60;99.90;;;;;;6220391;23;20511;-80
2022/08/21 12:21:47;;;;;;;7.55;1.95;;;21.60;99.90;;;;;;6247163;23;20023;-81
2022/08/21 12:24:13;;;;;;;7.70;1.83;;;21.50;99.90;;;;;;6194886;23;20052;-80
2022/08/21 12:26:57;;;;;;;5.85;1.63;;;21.60;99.90;;;;;;6194371;23;20020;-81
2022/08/21 12:29:29;;;;;;;8.02;1.67;;;21.70;99.90;;;;;;6220220;23;20020;-80
2022/08/21 12:32:00;;;;;;;13.85;2.15;;;21.70;99.90;;;;;;6220214;23;20470;-80
2022/08/21 12:34:33;;;;;;;7.90;1.70;;;21.70;99.90;;;;;;6219201;23;20020;-80
2022/08/21 12:37:35;;;;;;;7.90;1.75;;;21.70;99.90;;;;;;6220328;23;20016;-80
2022/08/21 12:40:05;;;;;;;5.55;1.42;;;21.70;99.90;;;;;;6220043;23;20028;-80
2022/08/21 12:42:42;;;;;;;7.03;1.85;;;21.70;99.90;;;;;;6219293;23;20356;-81
2022/08/21 12:45:30;;;;;;;12.50;2.20;;;21.60;99.90;;;;;;6220139;23;20024;-80
2022/08/21 12:48:01;;;;;;;5.55;1.95;;;21.50;99.90;;;;;;6244315;23;20024;-80
2022/08/21 12:50:56;;;;;;;6.03;1.75;;;21.40;99.90;;;;;;6219990;23;20047;-80
2022/08/21 12:53:25;;;;;;;5.90;1.80;;;21.40;99.90;;;;;;6220026;23;20026;-80
2022/08/21 12:55:50;;;;;;;3.70;1.40;;;21.30;99.90;;;;;;6218945;23;20024;-80
2022/08/21 12:58:23;;;;;;;6.95;1.73;;;21.30;99.90;;;;;;6194850;23;20078;-80
2022/08/21 13:00:56;;;;;;;6.57;1.52;;;21.20;99.90;;;;;;6219825;23;20017;-80